Time;durP1;ratioP1;P1;durP2;ratioP2;P2;SDS_P1;SDS_P2;PMS_P1;PMS_P2;Temp;Humidity;BMP_temperature;BMP_pressure;BME280_temperature;BME280_humidity;BME280_pressure;Samples;Min_cycle;Max_cycle;Signal;HPM_P1;HPM_P2
2022/09/03 00:00:08;;;;;;;7.22;1.60;;;41.40;47.40;;;;;;4902720;29;20502;-62
2022/09/03 00:02:46;;;;;;;12.55;1.48;;;41.20;47.50;;;;;;4915697;29;20335;-60
2022/09/03 00:05:39;;;;;;;13.75;1.42;;;41.10;47.40;;;;;;4901938;29;20596;-60
2022/09/03 00:08:50;;;;;;;15.82;1.33;;;41.10;47.70;;;;;;4919792;29;20071;-63
2022/09/03 00:11:33;;;;;;;13.25;1.13;;;41.10;46.90;;;;;;4887374;29;20483;-62
2022/09/03 00:14:08;;;;;;;6.68;1.17;;;40.90;46.70;;;;;;4873181;29;20515;-60
2022/09/03 00:17:08;;;;;;;9.27;1.02;;;40.70;47.40;;;;;;4856776;29;20037;-61
2022/09/03 00:19:43;;;;;;;5.53;1.25;;;40.70;47.10;;;;;;4880968;29;20061;-63
2022/09/03 00:22:18;;;;;;;13.07;1.40;;;40.70;47.50;;;;;;4875822;29;20072;-62
2022/09/03 00:24:47;;;;;;;10.63;1.20;;;40.70;47.50;;;;;;4887514;29;20176;-63
2022/09/03 00:27:21;;;;;;;9.10;1.40;;;40.70;47.30;;;;;;4875309;29;20514;-63
2022/09/03 00:30:19;;;;;;;9.70;1.67;;;40.60;47.50;;;;;;4887690;29;20055;-65
2022/09/03 00:32:54;;;;;;;8.63;1.50;;;40.50;47.90;;;;;;4942366;28;20085;-63
2022/09/03 00:35:46;;;;;;;11.45;0.95;;;40.50;47.70;;;;;;4949609;28;20045;-61
2022/09/03 00:38:13;;;;;;;10.32;1.23;;;40.40;47.60;;;;;;4961709;28;20070;-63
2022/09/03 00:40:45;;;;;;;18.80;1.27;;;40.40;47.50;;;;;;4963142;28;20026;-62
2022/09/03 00:43:53;;;;;;;10.73;1.30;;;40.30;47.80;;;;;;4990611;28;20046;-61
2022/09/03 00:46:35;;;;;;;12.55;1.48;;;40.20;48.30;;;;;;4997669;28;20056;-63
2022/09/03 00:49:29;;;;;;;31.05;1.65;;;40.10;48.90;;;;;;5008307;28;20034;-67
2022/09/03 00:52:29;;;;;;;15.48;1.50;;;40.00;49.00;;;;;;5008814;28;20040;-65
2022/09/03 00:55:12;;;;;;;18.40;1.73;;;39.80;49.30;;;;;;5008047;28;20062;-66
2022/09/03 00:58:07;;;;;;;17.27;1.77;;;39.70;49.80;;;;;;4993072;28;20384;-67
2022/09/03 01:00:35;;;;;;;19.40;1.48;;;39.60;49.90;;;;;;4991729;28;20033;-66
2022/09/03 01:03:26;;;;;;;9.48;1.75;;;39.60;50.10;;;;;;4980064;28;20559;-69
2022/09/03 01:06:10;;;;;;;13.88;2.20;;;39.50;50.20;;;;;;5009311;28;20038;-67
2022/09/03 01:08:58;;;;;;;16.52;1.63;;;39.40;50.50;;;;;;4991322;28;20392;-68
2022/09/03 01:12:02;;;;;;;23.20;1.77;;;39.30;50.60;;;;;;4989300;28;20562;-67
2022/09/03 01:14:45;;;;;;;26.25;1.95;;;39.10;50.90;;;;;;4990416;28;20041;-66
2022/09/03 01:17:30;;;;;;;14.93;1.70;;;39.10;51.30;;;;;;4983329;28;20709;-68
2022/09/03 01:20:33;;;;;;;17.42;1.70;;;38.90;51.60;;;;;;4991209;28;20117;-68
2022/09/03 01:23:23;;;;;;;19.70;2.08;;;38.80;51.60;;;;;;4990463;28;20040;-67
2022/09/03 01:25:57;;;;;;;29.15;2.75;;;38.70;51.60;;;;;;4990595;28;20481;-68
2022/09/03 01:28:51;;;;;;;13.63;1.63;;;38.60;51.90;;;;;;4991032;28;20143;-66
2022/09/03 01:31:52;;;;;;;29.10;2.70;;;38.50;52.00;;;;;;5008703;28;20128;-66
2022/09/03 01:34:30;;;;;;;18.02;1.92;;;38.40;53.00;;;;;;4980982;28;20515;-67
2022/09/03 01:37:12;;;;;;;24.70;2.30;;;38.30;52.50;;;;;;5011103;28;20030;-67
2022/09/03 01:40:06;;;;;;;17.25;2.05;;;38.20;53.00;;;;;;5008348;28;20025;-66
2022/09/03 01:42:50;;;;;;;20.70;2.33;;;38.10;53.80;;;;;;4991565;28;20026;-69
2022/09/03 01:45:39;;;;;;;35.95;2.58;;;38.10;52.90;;;;;;4991038;28;20357;-67
2022/09/03 01:48:47;;;;;;;20.70;2.17;;;38.10;53.00;;;;;;4991733;28;20226;-69
2022/09/03 01:51:26;;;;;;;16.55;2.00;;;38.00;53.20;;;;;;4949710;28;20118;-68
2022/09/03 01:54:23;;;;;;;27.40;2.38;;;38.00;53.10;;;;;;4933507;28;20478;-68
2022/09/03 01:57:10;;;;;;;;;;;38.00;52.90;;;;;;4932914;28;20092;-67
2022/09/03 01:59:50;;;;;;;11.77;1.65;;;37.80;52.80;;;;;;4934375;28;19953;-68
2022/09/03 02:02:25;;;;;;;12.43;1.98;;;37.70;53.10;;;;;;4933451;28;20474;-69
2022/09/03 02:05:17;;;;;;;13.35;2.00;;;37.60;53.50;;;;;;4932833;28;20035;-70
2022/09/03 02:08:05;;;;;;;18.60;1.83;;;37.60;53.90;;;;;;4926619;28;20042;-65
2022/09/03 02:10:48;;;;;;;15.45;1.90;;;37.50;54.20;;;;;;4948788;28;20034;-66
2022/09/03 02:13:24;;;;;;;15.45;1.85;;;37.40;54.60;;;;;;4948201;28;20028;-68
2022/09/03 02:15:52;;;;;;;20.67;2.10;;;37.40;54.70;;;;;;4947811;28;20050;-69
2022/09/03 02:18:24;;;;;;;17.60;2.40;;;37.30;54.80;;;;;;4937206;28;20027;-64
2022/09/03 02:20:53;;;;;;;13.63;2.13;;;37.30;55.40;;;;;;4917906;28;20039;-66
2022/09/03 02:23:19;;;;;;;20.73;1.67;;;37.20;55.30;;;;;;4934638;28;20043;-73
2022/09/03 02:25:50;;;;;;;15.80;2.00;;;37.10;55.50;;;;;;4979285;28;20030;-70
2022/09/03 02:28:17;;;;;;;18.98;2.65;;;37.10;55.70;;;;;;4992139;28;20021;-67
2022/09/03 02:30:43;;;;;;;19.50;2.17;;;37.00;55.90;;;;;;4992095;28;20033;-69
2022/09/03 02:33:10;;;;;;;34.00;2.35;;;36.90;56.10;;;;;;4994200;28;20037;-69
2022/09/03 02:35:36;;;;;;;17.55;2.20;;;36.80;56.30;;;;;;5002249;28;20472;-66
2022/09/03 02:38:18;;;;;;;22.38;2.67;;;36.70;56.50;;;;;;5009427;28;20029;-69
2022/09/03 02:40:45;;;;;;;14.00;2.15;;;36.70;56.60;;;;;;4992002;28;20029;-66
2022/09/03 02:43:24;;;;;;;20.20;1.95;;;36.70;56.50;;;;;;4990505;28;20325;-65
2022/09/03 02:45:54;;;;;;;13.38;1.83;;;36.60;56.30;;;;;;4991321;28;20021;-68
2022/09/03 02:48:23;;;;;;;16.50;2.30;;;36.60;56.30;;;;;;4991717;28;20026;-66
2022/09/03 02:50:50;;;;;;;20.13;2.95;;;36.50;56.20;;;;;;4995401;28;20083;-66
2022/09/03 02:53:16;;;;;;;15.80;1.65;;;36.50;56.10;;;;;;5011024;28;20708;-64
2022/09/03 02:55:43;;;;;;;11.20;1.65;;;36.50;55.90;;;;;;5008917;28;20071;-62
2022/09/03 02:58:10;;;;;;;16.88;2.17;;;36.50;55.90;;;;;;4992831;28;20022;-63
2022/09/03 03:00:36;;;;;;;27.13;6.72;;;36.40;55.80;;;;;;5009136;28;20380;-63
2022/09/03 03:03:04;;;;;;;55.60;19.13;;;36.30;55.60;;;;;;4992458;28;20103;-62
2022/09/03 03:05:45;;;;;;;61.28;25.52;;;36.30;55.70;;;;;;4973849;28;20029;-65
2022/09/03 03:08:13;;;;;;;58.58;21.90;;;36.20;55.80;;;;;;4983080;28;20025;-63
2022/09/03 03:10:43;;;;;;;44.05;14.73;;;36.20;55.50;;;;;;4995857;28;20033;-67
2022/09/03 03:13:11;;;;;;;35.97;11.77;;;36.20;55.50;;;;;;5013179;28;20026;-63
2022/09/03 03:15:37;;;;;;;33.50;10.43;;;36.20;55.20;;;;;;4995930;28;20052;-63
2022/09/03 03:18:04;;;;;;;35.40;8.35;;;36.10;55.10;;;;;;4982458;28;20021;-61
2022/09/03 03:20:30;;;;;;;33.63;6.90;;;36.20;55.00;;;;;;5009220;28;20028;-64
2022/09/03 03:22:57;;;;;;;38.90;5.40;;;36.10;54.90;;;;;;4979454;28;20042;-62
2022/09/03 03:25:23;;;;;;;44.90;4.25;;;36.10;55.00;;;;;;4979062;28;20431;-63
2022/09/03 03:27:50;;;;;;;32.92;4.20;;;36.10;55.20;;;;;;5010400;28;20034;-65
2022/09/03 03:30:19;;;;;;;26.33;3.65;;;36.00;55.30;;;;;;5013210;28;20388;-66
2022/09/03 03:32:46;;;;;;;38.65;3.88;;;36.00;55.30;;;;;;4995695;28;20100;-64
2022/09/03 03:35:12;;;;;;;33.20;4.05;;;35.90;55.30;;;;;;4994776;28;20034;-64
2022/09/03 03:37:38;;;;;;;31.10;3.90;;;35.90;55.40;;;;;;4995127;28;20026;-66
2022/09/03 03:40:06;;;;;;;22.27;2.58;;;35.90;55.50;;;;;;4995555;28;20022;-66
2022/09/03 03:42:36;;;;;;;27.13;3.03;;;35.80;55.50;;;;;;5011382;28;20374;-64
2022/09/03 03:45:04;;;;;;;18.92;3.03;;;35.80;55.80;;;;;;4993178;28;20094;-63
2022/09/03 03:47:31;;;;;;;31.55;2.80;;;35.70;55.70;;;;;;4978739;28;20022;-63
2022/09/03 03:49:58;;;;;;;18.45;2.40;;;35.70;55.80;;;;;;4994091;28;20097;-65
2022/09/03 03:52:26;;;;;;;35.55;2.65;;;35.60;55.70;;;;;;4995350;28;20029;-66
2022/09/03 03:54:53;;;;;;;21.58;2.88;;;35.60;55.90;;;;;;4994870;28;20038;-63
2022/09/03 03:57:20;;;;;;;27.42;2.97;;;35.60;55.70;;;;;;4995066;28;20484;-63
2022/09/03 03:59:47;;;;;;;20.48;2.97;;;35.50;56.00;;;;;;4995515;28;20498;-67
2022/09/03 04:02:14;;;;;;;25.73;2.85;;;35.50;56.00;;;;;;4994253;28;20022;-62
2022/09/03 04:04:41;;;;;;;25.13;2.58;;;35.40;56.00;;;;;;4994654;28;20160;-66
2022/09/03 04:07:08;;;;;;;27.50;2.72;;;35.40;55.80;;;;;;5012934;28;20399;-63
2022/09/03 04:09:34;;;;;;;23.00;2.92;;;35.40;56.10;;;;;;4994835;28;20049;-63
2022/09/03 04:12:02;;;;;;;25.30;2.50;;;35.40;56.30;;;;;;4993692;28;20044;-63
2022/09/03 04:14:29;;;;;;;21.58;3.20;;;35.30;56.30;;;;;;4994821;28;20025;-63
2022/09/03 04:16:55;;;;;;;23.40;2.75;;;35.30;56.40;;;;;;5011628;28;20018;-64
2022/09/03 04:19:23;;;;;;;21.60;2.75;;;35.20;56.50;;;;;;4996815;28;20076;-65
2022/09/03 04:21:49;;;;;;;14.55;2.30;;;35.20;56.50;;;;;;4994591;28;20492;-66
2022/09/03 04:24:15;;;;;;;19.02;2.67;;;35.20;56.20;;;;;;4994992;28;20030;-64
2022/09/03 04:26:42;;;;;;;11.02;2.20;;;35.20;56.30;;;;;;4994847;28;20484;-67
2022/09/03 04:29:09;;;;;;;19.58;2.17;;;35.20;56.40;;;;;;4995512;28;20069;-63
2022/09/03 04:31:37;;;;;;;11.50;1.92;;;35.10;56.30;;;;;;5014162;28;20032;-64
2022/09/03 04:34:08;;;;;;;12.77;2.38;;;35.10;56.40;;;;;;5011616;28;20492;-65
2022/09/03 04:36:36;;;;;;;13.10;1.60;;;35.10;56.20;;;;;;4994212;28;20477;-66
2022/09/03 04:39:02;;;;;;;14.20;1.88;;;35.00;56.10;;;;;;4993974;28;20022;-62
2022/09/03 04:41:30;;;;;;;20.08;2.20;;;35.10;56.30;;;;;;5011777;28;20117;-65
2022/09/03 04:43:58;;;;;;;18.23;1.88;;;35.10;56.20;;;;;;5011478;28;20026;-64
2022/09/03 04:46:31;;;;;;;16.63;2.42;;;35.10;56.40;;;;;;4994131;28;20480;-65
2022/09/03 04:48:58;;;;;;;16.23;2.60;;;35.10;56.40;;;;;;5010982;28;20033;-65
2022/09/03 04:51:27;;;;;;;14.50;2.60;;;35.00;56.60;;;;;;4993966;28;20037;-64
2022/09/03 04:53:59;;;;;;;15.73;2.13;;;35.10;56.80;;;;;;4993906;28;20029;-64
2022/09/03 04:56:31;;;;;;;14.75;2.50;;;35.00;56.90;;;;;;4993638;28;20113;-65
2022/09/03 04:59:03;;;;;;;13.45;2.45;;;35.00;57.00;;;;;;4995348;28;20391;-64
2022/09/03 05:01:31;;;;;;;13.05;2.60;;;35.00;57.20;;;;;;5009395;28;20018;-64
2022/09/03 05:03:59;;;;;;;11.27;1.95;;;34.90;57.70;;;;;;4977749;28;20431;-65
2022/09/03 05:06:27;;;;;;;3.97;1.25;;;34.90;58.10;;;;;;4977236;28;20092;-63
2022/09/03 05:08:54;;;;;;;13.23;1.88;;;34.90;58.30;;;;;;4992004;28;20037;-65
2022/09/03 05:11:22;;;;;;;12.07;1.88;;;34.80;58.50;;;;;;5010622;28;20084;-63
2022/09/03 05:13:50;;;;;;;8.90;1.50;;;34.70;58.70;;;;;;4977257;28;20026;-62
2022/09/03 05:16:17;;;;;;;9.07;1.80;;;34.70;58.80;;;;;;5010238;28;20038;-64
2022/09/03 05:18:45;;;;;;;8.30;1.95;;;34.60;58.80;;;;;;4966574;28;20030;-66
2022/09/03 05:21:17;;;;;;;9.18;1.50;;;34.60;59.00;;;;;;5015164;28;20125;-65
2022/09/03 05:23:51;;;;;;;7.55;1.33;;;34.60;59.00;;;;;;4992118;28;20130;-66
2022/09/03 05:26:24;;;;;;;16.30;1.90;;;34.60;58.80;;;;;;4990772;28;20030;-65
2022/09/03 05:28:57;;;;;;;13.75;1.50;;;34.60;58.80;;;;;;4975139;28;20117;-65
2022/09/03 05:31:25;;;;;;;10.23;1.98;;;34.50;58.90;;;;;;4973215;28;20050;-65
2022/09/03 05:33:54;;;;;;;6.63;1.50;;;34.60;59.00;;;;;;4990123;28;20027;-68
2022/09/03 05:36:23;;;;;;;5.63;1.60;;;34.60;59.10;;;;;;4990180;28;20117;-65
2022/09/03 05:38:50;;;;;;;9.32;1.65;;;34.50;59.10;;;;;;4990941;28;20476;-64
2022/09/03 05:41:18;;;;;;;15.82;2.17;;;34.50;59.30;;;;;;4990297;28;20034;-65
2022/09/03 05:43:44;;;;;;;13.77;1.77;;;34.50;59.60;;;;;;4991551;28;20523;-63
2022/09/03 05:46:15;;;;;;;10.32;1.33;;;34.50;59.80;;;;;;4990347;28;20130;-64
2022/09/03 05:48:42;;;;;;;14.65;1.75;;;34.40;60.00;;;;;;4989917;28;20026;-63
2022/09/03 05:51:15;;;;;;;12.55;2.05;;;34.30;60.20;;;;;;4990064;28;20077;-63
2022/09/03 05:53:46;;;;;;;7.88;1.45;;;34.30;60.60;;;;;;4991701;28;20069;-65
2022/09/03 05:56:16;;;;;;;12.48;1.40;;;34.30;60.70;;;;;;4989711;28;20034;-62
2022/09/03 05:58:49;;;;;;;11.25;1.45;;;34.30;61.10;;;;;;4987902;28;20101;-64
2022/09/03 06:01:21;;;;;;;10.88;1.75;;;34.20;61.50;;;;;;4989964;28;20477;-63
2022/09/03 06:03:54;;;;;;;9.80;1.52;;;34.20;62.10;;;;;;4990764;28;20469;-64
2022/09/03 06:06:24;;;;;;;12.05;1.85;;;34.20;62.90;;;;;;4988563;28;20181;-64
2022/09/03 06:08:56;;;;;;;8.02;2.22;;;34.20;63.00;;;;;;4989696;28;20023;-63
2022/09/03 06:11:28;;;;;;;5.65;1.80;;;34.20;63.10;;;;;;4990198;28;20097;-65
2022/09/03 06:13:56;;;;;;;10.80;2.20;;;34.10;63.30;;;;;;4972300;28;20449;-65
2022/09/03 06:16:24;;;;;;;7.53;1.90;;;34.10;63.80;;;;;;4989445;28;20072;-62
2022/09/03 06:18:54;;;;;;;10.93;2.20;;;34.10;63.60;;;;;;4989678;28;20065;-63
2022/09/03 06:21:21;;;;;;;8.07;2.10;;;34.10;63.40;;;;;;4988807;28;20026;-61
2022/09/03 06:23:52;;;;;;;13.98;2.10;;;34.20;63.90;;;;;;4971204;28;20038;-63
2022/09/03 06:26:19;;;;;;;10.02;3.25;;;34.20;64.30;;;;;;4987487;28;20555;-62
2022/09/03 06:28:49;;;;;;;13.80;2.95;;;34.10;64.50;;;;;;4989604;28;20062;-64
2022/09/03 06:31:18;;;;;;;11.85;3.90;;;34.10;64.70;;;;;;4972613;28;20034;-62
2022/09/03 06:33:46;;;;;;;16.73;4.50;;;34.10;65.10;;;;;;4989088;28;20389;-62
2022/09/03 06:36:18;;;;;;;19.80;4.05;;;34.00;65.70;;;;;;4987404;28;20030;-62
2022/09/03 06:38:45;;;;;;;6.55;3.08;;;33.90;67.30;;;;;;4988496;28;20164;-64
2022/09/03 06:41:23;;;;;;;7.63;3.30;;;33.80;67.00;;;;;;4988300;28;20520;-63
2022/09/03 06:43:57;;;;;;;9.13;3.33;;;33.80;67.40;;;;;;4988089;28;20045;-62
2022/09/03 06:46:24;;;;;;;11.90;2.92;;;33.70;67.90;;;;;;4988350;28;20026;-62
2022/09/03 06:48:52;;;;;;;5.30;2.88;;;33.60;67.90;;;;;;4996573;28;20031;-62
2022/09/03 06:51:25;;;;;;;9.02;3.50;;;33.60;68.20;;;;;;4989635;28;20103;-63
2022/09/03 06:53:55;;;;;;;15.55;3.13;;;33.60;68.50;;;;;;4989052;28;20045;-64
2022/09/03 06:56:26;;;;;;;9.77;2.70;;;33.50;68.70;;;;;;4990020;28;20076;-62
2022/09/03 06:59:01;;;;;;;4.57;2.00;;;33.50;68.80;;;;;;4988831;28;20481;-63
2022/09/03 07:01:29;;;;;;;15.40;3.08;;;33.40;69.20;;;;;;4988288;28;20037;-65
2022/09/03 07:03:59;;;;;;;8.45;2.78;;;33.40;69.20;;;;;;4987814;28;20030;-63
2022/09/03 07:06:31;;;;;;;7.50;2.20;;;33.30;69.60;;;;;;4988624;28;20034;-63
2022/09/03 07:08:58;;;;;;;7.63;2.45;;;33.30;69.80;;;;;;4989416;28;20026;-63
2022/09/03 07:11:30;;;;;;;6.65;1.98;;;33.30;70.00;;;;;;4988745;28;20030;-65
2022/09/03 07:13:57;;;;;;;10.13;2.10;;;33.30;70.20;;;;;;4972066;28;20392;-65
2022/09/03 07:16:27;;;;;;;10.48;2.15;;;33.30;70.50;;;;;;4971986;28;20031;-64
2022/09/03 07:18:54;;;;;;;8.90;2.03;;;33.30;70.70;;;;;;4957084;28;20029;-64
2022/09/03 07:21:24;;;;;;;6.38;1.83;;;33.20;70.70;;;;;;4987644;28;20489;-63
2022/09/03 07:23:53;;;;;;;12.05;2.05;;;33.20;70.70;;;;;;4986771;28;20403;-62
2022/09/03 07:26:24;;;;;;;11.40;1.95;;;33.20;70.90;;;;;;5002812;28;20030;-63
2022/09/03 07:28:53;;;;;;;5.75;1.63;;;33.10;71.40;;;;;;4989258;28;20354;-63
2022/09/03 07:31:24;;;;;;;5.95;1.90;;;33.10;71.60;;;;;;4987828;28;20559;-64
2022/09/03 07:34:12;;;;;;;10.82;2.22;;;33.00;72.00;;;;;;4986722;28;20034;-62
2022/09/03 07:36:45;;;;;;;14.20;2.65;;;33.00;72.80;;;;;;4988230;28;20530;-62
2022/09/03 07:39:13;;;;;;;9.82;2.35;;;33.00;71.90;;;;;;4987961;28;20022;-63
2022/09/03 07:41:44;;;;;;;14.00;2.50;;;32.90;71.80;;;;;;4987878;28;20109;-63
2022/09/03 07:44:18;;;;;;;13.13;2.50;;;32.90;72.10;;;;;;4986562;28;20366;-63
2022/09/03 07:46:46;;;;;;;10.57;2.33;;;32.90;72.40;;;;;;4972163;28;20039;-61
2022/09/03 07:49:16;;;;;;;8.93;2.25;;;32.90;72.40;;;;;;4987671;28;20030;-62
2022/09/03 07:51:42;;;;;;;6.85;2.05;;;32.80;72.40;;;;;;4986936;28;20500;-62
2022/09/03 07:54:10;;;;;;;20.45;2.40;;;32.70;72.50;;;;;;4991589;28;20052;-63
2022/09/03 07:56:39;;;;;;;10.23;2.22;;;32.80;72.90;;;;;;5005210;28;20026;-64
2022/09/03 07:59:06;;;;;;;9.73;2.10;;;32.70;73.10;;;;;;4992376;28;20060;-63
2022/09/03 08:01:33;;;;;;;9.48;1.73;;;32.70;73.20;;;;;;4991640;28;20089;-64
2022/09/03 08:04:01;;;;;;;5.97;1.80;;;32.70;73.40;;;;;;4975096;28;20110;-66
2022/09/03 08:06:29;;;;;;;7.15;1.55;;;32.70;73.60;;;;;;4974892;28;20428;-62
2022/09/03 08:09:02;;;;;;;7.65;1.70;;;32.60;73.70;;;;;;4990047;28;20034;-62
2022/09/03 08:11:30;;;;;;;6.38;1.55;;;32.60;73.80;;;;;;4974164;28;20030;-63
2022/09/03 08:14:01;;;;;;;10.38;1.95;;;32.60;73.90;;;;;;4989448;28;20093;-62
2022/09/03 08:16:29;;;;;;;8.75;1.90;;;32.60;74.00;;;;;;4989925;28;20109;-63
2022/09/03 08:18:56;;;;;;;13.05;1.90;;;32.50;74.50;;;;;;4992184;28;20485;-63
2022/09/03 08:21:23;;;;;;;7.68;1.83;;;32.50;74.60;;;;;;4990384;28;20030;-64
2022/09/03 08:24:01;;;;;;;6.57;1.45;;;32.50;74.90;;;;;;4989059;28;20043;-63
2022/09/03 08:26:30;;;;;;;9.30;2.08;;;32.50;75.10;;;;;;4975488;28;20122;-64
2022/09/03 08:28:56;;;;;;;6.22;1.67;;;32.50;75.20;;;;;;4991633;28;20062;-67
2022/09/03 08:31:27;;;;;;;8.63;1.85;;;32.40;75.40;;;;;;4973993;28;20073;-64
2022/09/03 08:33:55;;;;;;;7.07;2.20;;;32.50;75.50;;;;;;4991573;28;20065;-63
2022/09/03 08:36:28;;;;;;;8.25;2.50;;;32.50;75.50;;;;;;4995602;28;20113;-63
2022/09/03 08:38:55;;;;;;;11.23;2.20;;;32.40;75.70;;;;;;4991035;28;20480;-65
2022/09/03 08:41:37;;;;;;;8.15;2.60;;;32.30;75.90;;;;;;4988951;28;20030;-62
2022/09/03 08:44:22;;;;;;;10.55;2.83;;;32.30;76.10;;;;;;4991037;28;20029;-63
2022/09/03 08:47:09;;;;;;;9.88;2.90;;;32.30;76.50;;;;;;4974367;28;20496;-64
2022/09/03 08:49:42;;;;;;;7.80;2.88;;;32.30;76.90;;;;;;4989666;28;20163;-64
2022/09/03 08:52:47;;;;;;;9.48;3.08;;;32.30;77.50;;;;;;4991371;28;20081;-62
2022/09/03 08:55:43;;;;;;;13.32;3.97;;;32.40;77.90;;;;;;4990757;28;20037;-64
2022/09/03 08:58:13;;;;;;;8.55;2.50;;;32.30;78.30;;;;;;4991019;28;20062;-63
2022/09/03 09:00:39;;;;;;;10.57;2.22;;;32.20;78.90;;;;;;4991154;28;20045;-62
2022/09/03 09:03:36;;;;;;;7.78;2.30;;;32.30;79.20;;;;;;4989629;28;20398;-62
2022/09/03 09:06:22;;;;;;;;;;;32.30;79.70;;;;;;4987381;28;20033;-63
2022/09/03 09:09:19;;;;;;;7.40;3.13;;;32.20;80.60;;;;;;4989730;28;19917;-63
2022/09/03 09:11:53;;;;;;;8.57;2.75;;;32.20;81.20;;;;;;4972892;28;20034;-64
2022/09/03 09:14:35;;;;;;;10.05;3.08;;;32.10;82.10;;;;;;4988647;28;20084;-64
2022/09/03 09:17:30;;;;;;;8.40;2.97;;;32.10;82.80;;;;;;4989784;28;20057;-64
2022/09/03 09:20:21;;;;;;;11.07;3.22;;;32.10;84.10;;;;;;4988899;28;20022;-63
2022/09/03 09:22:59;;;;;;;10.20;3.28;;;32.10;83.70;;;;;;4988468;28;20034;-63
2022/09/03 09:25:25;;;;;;;9.20;3.20;;;32.00;83.90;;;;;;4974089;28;20019;-64
2022/09/03 09:28:03;;;;;;;11.55;3.38;;;32.10;84.50;;;;;;4973757;28;20139;-65
2022/09/03 09:30:31;;;;;;;7.05;3.25;;;32.00;84.60;;;;;;4990474;28;20068;-64
2022/09/03 09:32:59;;;;;;;11.70;3.60;;;32.10;84.80;;;;;;4987952;28;20027;-62
2022/09/03 09:35:25;;;;;;;10.85;3.83;;;32.00;85.00;;;;;;4970899;28;20035;-64
2022/09/03 09:37:56;;;;;;;11.02;3.38;;;31.90;85.10;;;;;;4990521;28;20916;-66
2022/09/03 09:40:34;;;;;;;11.68;3.38;;;31.90;85.70;;;;;;4999947;28;20023;-66
2022/09/03 09:43:14;;;;;;;11.07;4.43;;;31.90;86.00;;;;;;4989336;28;20065;-63
2022/09/03 09:45:49;;;;;;;13.30;4.35;;;31.90;86.50;;;;;;4989329;28;20033;-66
2022/09/03 09:48:19;;;;;;;10.18;4.30;;;31.90;86.90;;;;;;4993501;28;20026;-65
2022/09/03 09:50:46;;;;;;;11.35;3.88;;;31.90;87.30;;;;;;4987816;28;20031;-63
2022/09/03 09:53:16;;;;;;;14.25;4.35;;;31.90;87.80;;;;;;4988481;28;20026;-64
2022/09/03 09:56:01;;;;;;;15.00;4.45;;;31.80;87.80;;;;;;4989333;28;20056;-63
2022/09/03 09:58:29;;;;;;;10.45;4.20;;;31.80;88.10;;;;;;4989599;28;20030;-63
2022/09/03 10:01:02;;;;;;;8.20;2.97;;;31.80;88.50;;;;;;4989901;28;20034;-65
2022/09/03 10:03:33;;;;;;;7.07;3.40;;;31.80;89.00;;;;;;4987952;28;20516;-63
2022/09/03 10:08:53;;;;;;;8.88;3.03;;;31.80;89.80;;;;;;4990037;28;20448;-63
2022/09/03 10:11:24;;;;;;;7.68;2.67;;;31.70;90.20;;;;;;5003226;28;20030;-64
2022/09/03 10:13:53;;;;;;;7.47;2.88;;;31.70;90.40;;;;;;4973040;28;20028;-64
2022/09/03 10:16:27;;;;;;;12.48;2.50;;;31.70;90.60;;;;;;4988280;28;20023;-66
2022/09/03 10:19:06;;;;;;;9.93;2.72;;;31.70;91.20;;;;;;4990598;28;20030;-64
2022/09/03 10:21:54;;;;;;;9.73;2.67;;;31.70;91.20;;;;;;4988773;28;20022;-63
2022/09/03 10:24:26;;;;;;;11.40;2.88;;;31.70;91.40;;;;;;4991133;28;20119;-63
2022/09/03 10:26:54;;;;;;;8.38;2.92;;;31.70;91.60;;;;;;4991680;28;20437;-62
2022/09/03 10:29:28;;;;;;;7.00;2.53;;;31.60;91.90;;;;;;4992040;28;20028;-64
2022/09/03 10:32:02;;;;;;;9.20;2.88;;;31.60;92.30;;;;;;5009006;28;20072;-65
2022/09/03 10:34:52;;;;;;;6.65;2.63;;;31.50;92.70;;;;;;4990773;28;20068;-63
2022/09/03 10:37:42;;;;;;;7.97;2.40;;;31.50;93.10;;;;;;4975008;28;20026;-64
2022/09/03 10:40:23;;;;;;;8.82;2.60;;;31.60;93.20;;;;;;4990588;28;20488;-64
2022/09/03 10:43:08;;;;;;;5.50;2.50;;;31.50;93.40;;;;;;4992465;28;20034;-64
2022/09/03 10:45:53;;;;;;;10.40;2.47;;;31.60;93.50;;;;;;4990470;28;20598;-64
2022/09/03 10:48:51;;;;;;;9.85;2.80;;;31.60;93.60;;;;;;5009063;28;20030;-64
2022/09/03 10:51:35;;;;;;;7.25;2.42;;;31.60;93.70;;;;;;5007913;28;20029;-64
2022/09/03 10:54:11;;;;;;;10.40;2.85;;;31.60;94.10;;;;;;4991053;28;20029;-64
2022/09/03 10:56:57;;;;;;;8.88;2.85;;;31.50;94.40;;;;;;5008959;28;20112;-64
2022/09/03 10:59:26;;;;;;;8.90;2.50;;;31.50;94.80;;;;;;4991718;28;20484;-64
2022/09/03 11:02:05;;;;;;;8.30;2.70;;;31.40;95.00;;;;;;5008136;28;20266;-62
2022/09/03 11:04:53;;;;;;;8.32;2.92;;;31.40;95.30;;;;;;5009119;28;20034;-62
2022/09/03 11:07:36;;;;;;;9.25;2.92;;;31.40;95.50;;;;;;4990699;28;20030;-64
2022/09/03 11:10:25;;;;;;;6.45;2.72;;;31.40;95.80;;;;;;4991237;28;20027;-64
2022/09/03 11:13:01;;;;;;;9.30;2.90;;;31.30;95.90;;;;;;4991410;28;20040;-64
2022/09/03 11:15:49;;;;;;;8.93;2.45;;;31.30;96.00;;;;;;4990734;28;20034;-65
2022/09/03 11:18:21;;;;;;;15.07;3.03;;;31.30;96.00;;;;;;4990208;28;20030;-65
2022/09/03 11:20:52;;;;;;;8.30;2.22;;;31.30;96.00;;;;;;4989183;28;20464;-64
2022/09/03 11:23:20;;;;;;;8.90;2.88;;;31.30;96.20;;;;;;4971008;28;20053;-63
2022/09/03 11:25:53;;;;;;;7.82;1.98;;;31.20;96.40;;;;;;4986961;28;20038;-62
2022/09/03 11:28:40;;;;;;;13.60;2.65;;;31.30;96.60;;;;;;4988622;28;20030;-64
2022/09/03 11:31:25;;;;;;;7.45;2.63;;;31.20;97.10;;;;;;4993762;28;20500;-62
2022/09/03 11:34:00;;;;;;;11.38;3.10;;;31.20;97.20;;;;;;4991058;28;20038;-64
2022/09/03 11:36:33;;;;;;;6.22;2.65;;;31.10;97.30;;;;;;4974735;28;20501;-63
2022/09/03 11:38:59;;;;;;;9.23;2.90;;;31.30;97.40;;;;;;4992041;28;20053;-63
2022/09/03 11:41:37;;;;;;;8.63;3.10;;;31.10;97.50;;;;;;4992157;28;20026;-62
2022/09/03 11:44:36;;;;;;;9.13;3.25;;;31.10;97.50;;;;;;4975710;28;20172;-65
2022/09/03 11:47:18;;;;;;;11.00;3.00;;;31.10;97.60;;;;;;4976564;28;20042;-63
2022/09/03 11:49:49;;;;;;;9.93;3.38;;;31.10;97.60;;;;;;4991865;28;20026;-62
2022/09/03 11:52:31;;;;;;;6.38;2.78;;;31.20;97.60;;;;;;4974140;28;20026;-62
2022/09/03 11:54:57;;;;;;;10.80;3.70;;;31.10;97.40;;;;;;4997100;28;20061;-64
2022/09/03 11:57:31;;;;;;;11.88;3.63;;;31.00;97.50;;;;;;4975181;28;20026;-63
2022/09/03 12:00:21;;;;;;;13.45;3.30;;;30.90;97.60;;;;;;4990543;28;20077;-63
2022/09/03 12:02:49;;;;;;;11.02;3.00;;;31.00;97.40;;;;;;4990294;28;20026;-64
2022/09/03 12:05:38;;;;;;;10.68;3.00;;;30.90;97.30;;;;;;4990686;28;20034;-63
2022/09/03 12:08:43;;;;;;;5.60;2.50;;;30.90;97.20;;;;;;4991302;28;20033;-65
2022/09/03 12:11:23;;;;;;;8.77;2.33;;;30.90;97.00;;;;;;4991176;28;20033;-62
2022/09/03 12:14:10;;;;;;;8.93;2.92;;;30.90;96.90;;;;;;4992330;28;20746;-63
2022/09/03 12:16:43;;;;;;;9.68;2.58;;;30.90;96.80;;;;;;4988672;28;20050;-64
2022/09/03 12:19:35;;;;;;;6.43;2.63;;;30.90;97.00;;;;;;4991783;28;20101;-64
2022/09/03 12:22:04;;;;;;;8.43;2.45;;;30.90;97.40;;;;;;4980950;28;20038;-64
2022/09/03 12:24:34;;;;;;;7.60;2.58;;;30.90;97.70;;;;;;4979261;28;20064;-64
2022/09/03 12:27:01;;;;;;;12.80;2.13;;;30.90;98.10;;;;;;5010067;28;20766;-64
2022/09/03 12:29:30;;;;;;;5.38;1.92;;;30.80;98.60;;;;;;4978939;28;20026;-63
2022/09/03 12:32:06;;;;;;;7.10;1.67;;;30.70;98.80;;;;;;5011343;28;20068;-63
2022/09/03 12:34:32;;;;;;;8.65;1.92;;;30.70;99.10;;;;;;5011127;28;20384;-61
2022/09/03 12:36:59;;;;;;;6.20;1.70;;;30.70;99.10;;;;;;4991096;28;20117;-67
2022/09/03 12:39:27;;;;;;;9.60;2.03;;;30.70;99.10;;;;;;4992981;28;20030;-65
2022/09/03 12:42:02;;;;;;;4.43;1.50;;;30.70;99.20;;;;;;4993990;28;20022;-66
2022/09/03 12:44:40;;;;;;;6.07;1.90;;;30.70;99.20;;;;;;4977498;28;20022;-65
2022/09/03 12:47:13;;;;;;;7.38;1.80;;;30.70;99.30;;;;;;5006657;28;20188;-65
2022/09/03 12:49:44;;;;;;;10.43;2.03;;;30.70;99.30;;;;;;4994351;28;20026;-66
2022/09/03 12:52:36;;;;;;;11.00;2.30;;;30.70;99.40;;;;;;4993719;28;20502;-64
2022/09/03 12:55:23;;;;;;;8.88;2.05;;;30.70;99.40;;;;;;5008335;28;20033;-63
2022/09/03 12:57:56;;;;;;;6.90;2.50;;;30.70;99.40;;;;;;5010100;28;20034;-63
2022/09/03 13:00:23;;;;;;;11.65;2.67;;;30.60;99.40;;;;;;4992667;28;20522;-64
2022/09/03 13:03:14;;;;;;;15.05;2.78;;;30.60;99.40;;;;;;5010496;28;20372;-63
2022/09/03 13:05:46;;;;;;;10.48;2.83;;;30.60;99.40;;;;;;4992901;28;20022;-63
2022/09/03 13:08:24;;;;;;;6.22;2.10;;;30.60;99.50;;;;;;4976061;28;20042;-63
2022/09/03 13:10:59;;;;;;;7.97;2.10;;;30.60;99.50;;;;;;4993265;28;20498;-65
2022/09/03 13:13:31;;;;;;;12.83;2.30;;;30.60;99.60;;;;;;5011380;28;20042;-63
2022/09/03 13:16:09;;;;;;;7.43;2.42;;;30.60;99.50;;;;;;4992684;28;20462;-64
2022/09/03 13:18:51;;;;;;;13.55;2.22;;;30.60;99.70;;;;;;4991820;28;20439;-63
2022/09/03 13:21:27;;;;;;;8.07;2.17;;;30.60;99.60;;;;;;4976287;28;20029;-63